GOSS

Details ICAO GOSS (XLS)
Name SAINT LOUIS
Region Senegal
Timezone Africa/Dakar (UTC+0.0)
Plans Departing 15
Arriving 22
Stats Elevation 9 ft / 3 m (AMSL)
Location 16.048306° -16.459655°
Runways 2
Magnetic Variation 6.647° W
Sunrise 2017-12-14 07:26:30 UTC / 2017-12-14 07:26:30 Local
Sunset 2017-12-14 18:37:23 UTC / 2017-12-14 18:37:23 Local
Advertisement - Login to hide

Runways

ID Width Length Bearing (true) Bearing (mag) Surface Threshold Offset Overrun Length
01 125 ft / 38 m 4,325 ft / 1,318 m 4.26° 10.91° Dirt 0 ft / 0 m 0 ft / 0 m
18 100 ft / 30 m 6,261 ft / 1,908 m 172.61° 179.26° Asphalt 0 ft / 0 m 330 ft / 101 m
19 125 ft / 38 m 4,325 ft / 1,318 m 184.26° 190.91° Dirt 0 ft / 0 m 0 ft / 0 m
36 100 ft / 30 m 6,261 ft / 1,908 m 352.61° 359.26° Asphalt 0 ft / 0 m 330 ft / 101 m

Map

Weather


0- 5 10 15 20 25 30 35+ Temperature / ° C

Clouds and Precipitation
Forecast for 2017-12-14 12:00 UTC. Updated an hour ago

Ground ~20,000 ft ~40,000 ft Winds

METAR

GOSS 141000Z 06008KT CAVOK 20/07 Q1017

TAF

TAF GOSS 140530Z 1406/1506 04013KT 8000 NSC

Frequencies

Tower 118.70 MHz TWR
Warning: Do not use this data for real-world aviation or navigation. No guarantee of current accuracy is given.